Time;durP1;ratioP1;P1;durP2;ratioP2;P2;SDS_P1;SDS_P2;PMS_P1;PMS_P2;Temp;Humidity;BMP_temperature;BMP_pressure;BME280_temperature;BME280_humidity;BME280_pressure;Samples;Min_cycle;Max_cycle;Signal;HPM_P1;HPM_P2
2022/11/08 00:01:37;;;;;;;34.17;9.50;;;12.80;99.90;;;;;;4929575;29;20098;-72
2022/11/08 00:04:14;;;;;;;24.27;8.50;;;12.60;99.90;;;;;;4930373;29;20059;-72
2022/11/08 00:14:55;;;;;;;27.75;8.75;;;12.50;99.90;;;;;;4942045;29;20146;-72
2022/11/08 00:17:23;;;;;;;20.45;8.63;;;12.60;99.90;;;;;;4929840;29;20186;-72
2022/11/08 00:19:49;;;;;;;19.02;7.15;;;12.50;99.90;;;;;;4928812;29;20055;-72
2022/11/08 00:22:16;;;;;;;20.77;6.47;;;12.50;99.90;;;;;;4924364;29;20167;-72
2022/11/08 00:24:42;;;;;;;27.00;7.80;;;12.60;99.90;;;;;;4929193;29;20127;-72
2022/11/08 00:27:11;;;;;;;19.50;8.23;;;12.60;99.90;;;;;;4929862;29;20039;-72
2022/11/08 00:29:37;;;;;;;17.45;7.85;;;12.50;99.90;;;;;;4928683;29;20051;-72
2022/11/08 00:32:04;;;;;;;30.50;8.65;;;12.50;99.90;;;;;;4929202;29;20060;-72
2022/11/08 00:34:32;;;;;;;26.77;8.20;;;12.60;99.90;;;;;;4929861;29;20050;-72
2022/11/08 00:36:57;;;;;;;17.93;7.70;;;12.60;99.90;;;;;;4930422;29;20560;-72
2022/11/08 00:39:24;;;;;;;19.63;7.15;;;12.60;99.90;;;;;;4929042;29;20187;-72
2022/11/08 00:41:50;;;;;;;19.27;7.20;;;12.50;99.90;;;;;;4932284;29;20044;-72
2022/11/08 00:44:16;;;;;;;14.98;7.15;;;12.60;99.90;;;;;;4928792;29;20071;-72
2022/11/08 00:46:42;;;;;;;19.90;9.13;;;12.70;99.90;;;;;;4927971;29;20047;-72
2022/11/08 00:49:08;;;;;;;16.60;7.75;;;12.50;99.90;;;;;;4928160;29;20144;-72
2022/11/08 00:51:36;;;;;;;29.00;9.65;;;12.60;99.90;;;;;;4929561;29;20047;-72
2022/11/08 00:54:06;;;;;;;23.02;8.30;;;12.50;99.90;;;;;;4929283;29;20448;-72
2022/11/08 00:56:33;;;;;;;24.60;7.53;;;12.40;99.90;;;;;;4929008;29;20131;-72
2022/11/08 00:58:59;;;;;;;16.50;7.38;;;12.50;99.90;;;;;;4928595;29;20489;-72
2022/11/08 01:01:25;;;;;;;19.48;7.55;;;12.50;99.90;;;;;;4932818;29;20051;-72
2022/11/08 01:03:51;;;;;;;24.98;7.47;;;12.40;99.90;;;;;;4929360;29;20568;-72
2022/11/08 01:06:20;;;;;;;20.75;6.93;;;12.40;99.90;;;;;;4928884;29;20142;-72
2022/11/08 01:08:46;;;;;;;21.83;8.27;;;12.40;99.90;;;;;;4928525;29;20044;-72
2022/11/08 01:11:15;;;;;;;18.55;7.50;;;12.30;99.90;;;;;;4928682;29;20066;-72
2022/11/08 01:13:41;;;;;;;17.63;7.72;;;12.40;99.90;;;;;;4928019;29;20048;-72
2022/11/08 01:16:13;;;;;;;17.67;7.95;;;12.30;99.90;;;;;;4930328;29;20114;-72
2022/11/08 01:18:39;;;;;;;17.90;6.75;;;12.30;99.90;;;;;;4934060;29;20110;-72
2022/11/08 01:21:05;;;;;;;16.75;7.80;;;12.20;99.90;;;;;;4933085;29;20727;-72
2022/11/08 01:23:31;;;;;;;21.52;7.07;;;12.20;99.90;;;;;;4948199;29;20062;-72
2022/11/08 01:26:03;;;;;;;24.50;8.23;;;12.10;99.90;;;;;;4932654;29;20055;-72
2022/11/08 01:28:28;;;;;;;34.47;8.52;;;12.20;99.90;;;;;;4934255;29;20040;-72
2022/11/08 01:30:54;;;;;;;28.58;8.02;;;12.00;99.90;;;;;;4930940;29;20412;-72
2022/11/08 01:33:20;;;;;;;28.45;8.40;;;12.00;99.90;;;;;;4922607;29;20193;-72
2022/11/08 01:35:45;;;;;;;22.90;6.70;;;12.00;99.90;;;;;;4949096;29;20166;-72
2022/11/08 01:38:11;;;;;;;29.73;8.30;;;12.10;99.90;;;;;;4930301;29;20501;-72
2022/11/08 01:40:45;;;;;;;24.52;8.60;;;11.90;99.90;;;;;;4932834;29;20052;-72
2022/11/08 01:43:32;;;;;;;17.67;7.65;;;11.90;99.90;;;;;;4933228;29;20071;-72
2022/11/08 01:46:35;;;;;;;18.90;6.72;;;11.90;99.90;;;;;;4927887;29;20048;-72
2022/11/08 01:49:30;;;;;;;15.82;6.68;;;11.90;99.90;;;;;;4933435;29;20051;-72
2022/11/08 01:52:06;;;;;;;18.33;8.23;;;11.80;99.90;;;;;;4931748;29;20055;-72
2022/11/08 01:54:41;;;;;;;21.17;7.57;;;11.80;99.90;;;;;;4947447;28;20055;-72
2022/11/08 01:57:12;;;;;;;21.35;7.07;;;11.80;99.90;;;;;;4930635;29;20051;-72
2022/11/08 01:59:41;;;;;;;21.42;7.93;;;11.70;99.90;;;;;;4948079;29;20051;-72
2022/11/08 02:02:09;;;;;;;17.45;8.00;;;11.70;99.90;;;;;;4931388;29;20541;-72
2022/11/08 02:04:36;;;;;;;15.80;6.70;;;11.80;99.90;;;;;;4933527;29;20126;-72
2022/11/08 02:07:04;;;;;;;26.77;8.82;;;11.70;99.90;;;;;;4933272;29;20043;-72
2022/11/08 02:09:31;;;;;;;14.75;8.65;;;11.70;99.90;;;;;;4932525;29;20856;-72
2022/11/08 02:11:57;;;;;;;17.27;7.40;;;11.70;99.90;;;;;;4931123;29;20059;-72
2022/11/08 02:14:22;;;;;;;19.23;7.57;;;11.70;99.90;;;;;;4931050;29;20056;-72
2022/11/08 02:16:48;;;;;;;26.95;7.97;;;11.60;99.90;;;;;;4931680;29;20130;-72
2022/11/08 02:19:26;;;;;;;17.40;7.38;;;11.60;99.90;;;;;;4946595;29;20055;-72
2022/11/08 02:21:57;;;;;;;17.23;7.38;;;11.60;99.90;;;;;;4933267;29;20527;-72
2022/11/08 02:24:23;;;;;;;20.08;8.45;;;11.60;99.90;;;;;;4932730;29;20527;-72
2022/11/08 02:26:51;;;;;;;18.73;7.65;;;11.60;99.90;;;;;;4932195;29;20052;-72
2022/11/08 02:29:27;;;;;;;19.35;7.57;;;11.70;99.90;;;;;;4929365;29;20040;-72
2022/11/08 02:31:55;;;;;;;16.40;7.18;;;11.60;99.90;;;;;;4945841;28;20505;-72
2022/11/08 02:34:28;;;;;;;19.83;7.57;;;11.60;99.90;;;;;;4945229;28;20187;-72
2022/11/08 02:36:55;;;;;;;28.75;9.18;;;11.70;99.90;;;;;;4925755;29;20066;-72
2022/11/08 02:39:20;;;;;;;18.70;7.57;;;11.80;99.90;;;;;;4932655;29;20051;-73
2022/11/08 02:41:46;;;;;;;26.05;9.02;;;11.60;99.90;;;;;;4932511;29;20059;-72
2022/11/08 02:44:12;;;;;;;18.02;8.18;;;11.70;99.90;;;;;;4930415;29;20059;-73
2022/11/08 02:46:37;;;;;;;20.88;7.63;;;11.60;99.90;;;;;;4946045;29;20044;-72
2022/11/08 02:49:03;;;;;;;25.95;7.78;;;11.60;99.90;;;;;;4930654;29;20127;-72
2022/11/08 02:51:28;;;;;;;16.08;7.47;;;11.60;99.90;;;;;;4930716;29;20055;-72
2022/11/08 02:53:54;;;;;;;25.50;8.38;;;11.50;99.90;;;;;;4930846;29;20056;-72
2022/11/08 02:56:20;;;;;;;24.10;8.38;;;11.60;99.90;;;;;;4932477;29;20051;-72
2022/11/08 02:58:45;;;;;;;17.70;8.18;;;11.50;99.90;;;;;;4931047;29;20055;-72
2022/11/08 03:01:11;;;;;;;16.00;7.88;;;11.50;99.90;;;;;;4930599;29;20051;-73
2022/11/08 03:03:36;;;;;;;22.98;7.20;;;11.60;99.90;;;;;;4931485;29;20087;-72
2022/11/08 03:06:03;;;;;;;27.48;8.10;;;11.60;99.90;;;;;;4930029;29;20048;-72
2022/11/08 03:08:29;;;;;;;22.23;8.43;;;11.50;99.90;;;;;;4931087;29;20055;-72
2022/11/08 03:10:54;;;;;;;13.85;7.65;;;11.50;99.90;;;;;;4930215;29;20059;-72
2022/11/08 03:13:20;;;;;;;19.08;6.97;;;11.40;99.90;;;;;;4931142;29;20114;-72
2022/11/08 03:15:45;;;;;;;12.27;7.18;;;11.40;99.90;;;;;;4929944;29;20058;-72
2022/11/08 03:18:11;;;;;;;13.52;7.20;;;11.40;99.90;;;;;;4931018;29;20058;-72
2022/11/08 03:20:37;;;;;;;15.45;6.32;;;11.40;99.90;;;;;;4929259;29;20409;-72
2022/11/08 03:23:05;;;;;;;22.27;7.65;;;11.50;99.90;;;;;;4929995;29;20129;-72
2022/11/08 03:25:31;;;;;;;;;;;11.40;99.90;;;;;;4928856;29;20052;-72
2022/11/08 03:28:07;;;;;;;17.42;7.72;;;11.40;99.90;;;;;;4931736;29;19927;-73
2022/11/08 03:30:33;;;;;;;14.50;7.38;;;11.30;99.90;;;;;;4928861;29;20052;-72
2022/11/08 03:32:59;;;;;;;17.23;7.22;;;11.30;99.90;;;;;;4945631;29;20176;-72
2022/11/08 03:35:24;;;;;;;21.45;6.93;;;11.30;99.90;;;;;;4930340;29;20142;-72
2022/11/08 03:37:55;;;;;;;18.85;7.90;;;11.40;99.90;;;;;;4929436;29;20044;-72
2022/11/08 03:40:21;;;;;;;41.58;7.32;;;11.50;99.90;;;;;;4930079;29;20055;-72
2022/11/08 03:42:47;;;;;;;26.27;8.93;;;11.20;99.90;;;;;;4945515;29;20052;-72
2022/11/08 03:45:14;;;;;;;25.30;7.45;;;11.30;99.90;;;;;;4928796;29;20056;-72
2022/11/08 03:47:45;;;;;;;20.75;8.40;;;11.20;99.90;;;;;;4930261;29;20146;-72
2022/11/08 03:50:13;;;;;;;14.63;7.68;;;11.30;99.90;;;;;;4922007;29;20409;-72
2022/11/08 03:52:43;;;;;;;18.43;8.20;;;11.30;99.90;;;;;;4929128;29;20051;-72
2022/11/08 03:55:10;;;;;;;15.88;7.97;;;11.30;99.90;;;;;;4939416;29;20039;-72
2022/11/08 03:57:37;;;;;;;20.52;8.00;;;11.20;99.90;;;;;;4931731;29;20048;-72
2022/11/08 04:00:06;;;;;;;15.60;7.60;;;11.20;99.90;;;;;;4928264;29;20077;-72
2022/11/08 04:02:31;;;;;;;;;;;11.20;99.90;;;;;;4930730;29;20058;-72
2022/11/08 04:04:57;;;;;;;19.55;7.03;;;11.40;99.90;;;;;;4929306;29;19957;-72
2022/11/08 04:07:23;;;;;;;21.77;7.32;;;11.20;99.90;;;;;;4929912;29;20051;-72
2022/11/08 04:09:48;;;;;;;15.68;7.90;;;11.20;99.90;;;;;;4928535;29;20043;-72
2022/11/08 04:15:13;;;;;;;18.13;8.02;;;11.20;99.90;;;;;;4928930;29;20131;-72
2022/11/08 04:21:17;;;;;;;16.90;7.13;;;11.20;99.90;;;;;;4945042;29;20489;-72
2022/11/08 04:23:12;;;;;;;13.63;7.03;;;11.20;99.90;;;;;;4928971;29;20066;-72
2022/11/08 04:25:38;;;;;;;23.05;8.38;;;11.40;99.90;;;;;;4928759;28;20047;-72
2022/11/08 04:28:04;;;;;;;13.02;6.72;;;11.20;99.90;;;;;;4926039;29;20130;-73
2022/11/08 04:30:30;;;;;;;20.42;7.53;;;11.20;99.90;;;;;;4928948;29;20098;-72
2022/11/08 04:32:58;;;;;;;13.25;6.80;;;11.10;99.90;;;;;;4930388;29;20146;-72
2022/11/08 04:35:23;;;;;;;15.43;7.57;;;11.30;99.90;;;;;;4928692;29;20051;-72
2022/11/08 04:37:49;;;;;;;21.05;7.90;;;11.30;99.90;;;;;;4929485;29;20052;-72
2022/11/08 04:40:15;;;;;;;25.35;7.20;;;11.60;99.90;;;;;;4929258;29;20050;-72
2022/11/08 04:42:43;;;;;;;33.03;7.70;;;11.20;99.90;;;;;;4928300;29;20047;-72
2022/11/08 04:45:09;;;;;;;16.08;7.00;;;11.20;99.90;;;;;;4929196;29;20520;-72
2022/11/08 04:47:35;;;;;;;15.60;6.85;;;11.20;99.90;;;;;;4930562;29;20040;-72
2022/11/08 04:50:01;;;;;;;20.30;7.90;;;11.20;99.90;;;;;;4930426;29;20433;-72
2022/11/08 04:52:27;;;;;;;13.18;7.15;;;11.20;99.90;;;;;;4931043;29;20501;-72
2022/11/08 04:54:52;;;;;;;16.65;7.05;;;11.20;99.90;;;;;;4934229;29;20047;-73
2022/11/08 04:57:18;;;;;;;14.90;7.22;;;11.10;99.90;;;;;;4933319;29;20044;-73
2022/11/08 04:59:43;;;;;;;13.30;7.00;;;11.20;99.90;;;;;;4935079;29;20040;-73
2022/11/08 05:02:09;;;;;;;11.02;6.78;;;11.20;99.90;;;;;;4934363;29;20087;-72
2022/11/08 05:04:34;;;;;;;15.27;8.13;;;11.10;99.90;;;;;;4936789;29;20496;-73
2022/11/08 05:07:00;;;;;;;14.05;6.50;;;11.20;99.90;;;;;;4934837;29;20461;-73
2022/11/08 05:09:26;;;;;;;17.17;6.10;;;11.20;99.90;;;;;;4934856;29;20047;-73
2022/11/08 05:11:51;;;;;;;17.02;7.40;;;11.20;99.90;;;;;;4950575;28;20051;-73
2022/11/08 05:14:17;;;;;;;26.98;7.57;;;11.10;99.90;;;;;;4936274;29;20056;-73
2022/11/08 05:16:42;;;;;;;17.20;7.38;;;11.20;99.90;;;;;;4935250;29;20382;-73
2022/11/08 05:19:08;;;;;;;20.52;6.90;;;11.10;99.90;;;;;;4935930;29;20063;-73
2022/11/08 05:24:18;;;;;;;41.75;7.40;;;11.10;99.90;;;;;;4949863;28;20067;-72
2022/11/08 05:26:46;;;;;;;19.58;6.60;;;11.00;99.90;;;;;;4933520;29;20448;-72
2022/11/08 05:29:13;;;;;;;18.90;6.63;;;11.00;99.90;;;;;;4935250;29;20047;-72
2022/11/08 05:31:39;;;;;;;15.05;8.18;;;11.00;99.90;;;;;;4934530;29;20110;-72
2022/11/08 05:34:07;;;;;;;20.77;6.85;;;11.00;99.90;;;;;;4933252;29;20483;-72
2022/11/08 05:36:33;;;;;;;15.93;8.13;;;11.00;99.90;;;;;;4936531;29;20417;-72
2022/11/08 05:38:59;;;;;;;15.93;7.03;;;11.10;99.90;;;;;;4934943;29;20416;-72
2022/11/08 05:41:25;;;;;;;14.00;6.45;;;10.90;99.90;;;;;;4934838;29;20052;-73
2022/11/08 05:43:53;;;;;;;13.23;6.97;;;11.00;99.90;;;;;;4935149;29;20532;-73
2022/11/08 05:46:20;;;;;;;15.00;6.88;;;11.00;99.90;;;;;;4935079;29;20051;-72
2022/11/08 05:48:47;;;;;;;9.13;6.65;;;10.90;99.90;;;;;;4934589;29;20523;-72
2022/11/08 05:51:15;;;;;;;15.50;7.38;;;10.90;99.90;;;;;;4932919;29;20155;-72
2022/11/08 05:53:41;;;;;;;20.50;8.20;;;10.90;99.90;;;;;;4934625;29;20138;-72
2022/11/08 05:56:07;;;;;;;17.98;7.40;;;11.30;99.90;;;;;;4936736;29;20142;-73
2022/11/08 05:58:35;;;;;;;25.75;8.52;;;10.90;99.90;;;;;;4934663;29;20047;-73
2022/11/08 06:01:12;;;;;;;17.97;6.33;;;10.90;99.90;;;;;;4934711;29;20046;-72
2022/11/08 06:03:38;;;;;;;19.52;7.85;;;10.90;99.90;;;;;;4933478;29;20306;-72
2022/11/08 06:06:07;;;;;;;18.65;6.90;;;10.80;99.90;;;;;;4930794;29;20043;-72
2022/11/08 06:08:32;;;;;;;15.82;7.40;;;10.90;99.90;;;;;;4931409;29;20074;-72
2022/11/08 06:11:12;;;;;;;12.88;7.53;;;10.90;99.90;;;;;;4933196;29;20051;-72
2022/11/08 06:13:40;;;;;;;17.40;8.32;;;11.00;99.90;;;;;;4928529;29;20062;-72
2022/11/08 06:16:09;;;;;;;14.15;6.97;;;10.80;99.90;;;;;;4946315;28;20066;-72
2022/11/08 06:18:35;;;;;;;21.20;8.40;;;10.80;99.90;;;;;;4933031;29;20059;-72
2022/11/08 06:21:02;;;;;;;17.95;8.07;;;10.90;99.90;;;;;;4939720;29;20187;-72
2022/11/08 06:23:28;;;;;;;14.77;8.23;;;10.90;99.90;;;;;;4932215;29;20126;-72
2022/11/08 06:25:54;;;;;;;21.15;10.27;;;10.80;99.90;;;;;;4931253;29;20051;-72
2022/11/08 06:28:20;;;;;;;16.17;9.02;;;10.80;99.90;;;;;;4941860;29;20520;-72
2022/11/08 06:30:46;;;;;;;17.80;9.18;;;11.00;99.90;;;;;;4931049;29;20067;-72
2022/11/08 06:33:12;;;;;;;17.08;8.68;;;10.80;99.90;;;;;;4930502;29;20067;-73
2022/11/08 06:35:37;;;;;;;22.48;9.27;;;10.70;99.90;;;;;;4932394;29;20063;-72
2022/11/08 06:38:03;;;;;;;17.05;9.75;;;10.60;99.90;;;;;;4932023;29;20393;-72
2022/11/08 06:40:31;;;;;;;21.13;11.02;;;10.60;99.90;;;;;;4930341;29;20043;-72
2022/11/08 06:42:57;;;;;;;34.22;11.07;;;10.50;99.90;;;;;;4925950;29;20059;-72
2022/11/08 06:45:24;;;;;;;29.98;11.60;;;10.50;99.90;;;;;;4948717;28;20055;-72
2022/11/08 06:48:01;;;;;;;28.63;11.35;;;10.40;99.90;;;;;;4932879;29;20520;-72
2022/11/08 06:50:28;;;;;;;28.60;11.03;;;10.50;99.90;;;;;;4946095;28;20060;-73
2022/11/08 06:52:59;;;;;;;26.83;10.68;;;10.40;99.90;;;;;;4931399;29;20040;-72
2022/11/08 06:55:25;;;;;;;21.65;11.35;;;10.40;99.90;;;;;;4932759;29;20055;-72
2022/11/08 06:57:51;;;;;;;24.15;11.60;;;10.50;99.90;;;;;;4930700;29;20771;-72
2022/11/08 07:00:17;;;;;;;28.42;11.10;;;10.60;99.90;;;;;;4936741;29;20055;-72
2022/11/08 07:02:43;;;;;;;30.83;12.25;;;10.60;99.90;;;;;;4947127;29;20043;-72
2022/11/08 07:05:10;;;;;;;23.30;10.48;;;10.60;99.90;;;;;;4930197;29;20050;-72
2022/11/08 07:07:35;;;;;;;20.90;10.75;;;10.60;99.90;;;;;;4928559;29;20155;-72
2022/11/08 07:10:02;;;;;;;14.55;8.77;;;10.70;99.90;;;;;;4930510;29;20119;-72
2022/11/08 07:12:28;;;;;;;17.95;9.13;;;10.80;99.90;;;;;;4929767;29;20058;-72
2022/11/08 07:14:53;;;;;;;12.93;8.30;;;10.80;99.90;;;;;;4944899;28;20420;-72
2022/11/08 07:17:19;;;;;;;12.38;8.68;;;11.10;99.90;;;;;;4931705;29;20513;-72
2022/11/08 07:19:45;;;;;;;15.30;8.52;;;11.00;99.90;;;;;;4930801;29;20047;-72
2022/11/08 07:22:10;;;;;;;20.10;7.68;;;10.90;99.90;;;;;;4946021;28;20051;-72
2022/11/08 07:24:36;;;;;;;18.63;8.57;;;10.90;99.90;;;;;;4931411;29;20445;-72
2022/11/08 07:27:01;;;;;;;13.38;7.82;;;11.00;99.90;;;;;;4930927;29;20705;-72
2022/11/08 07:29:27;;;;;;;16.85;8.02;;;11.00;99.90;;;;;;4929958;29;20059;-72
2022/11/08 07:31:53;;;;;;;11.27;6.95;;;11.10;99.90;;;;;;4944398;28;20070;-72
2022/11/08 07:34:19;;;;;;;11.52;6.50;;;11.10;99.90;;;;;;4931305;29;20076;-72
2022/11/08 07:36:45;;;;;;;12.18;7.50;;;11.10;99.90;;;;;;4943152;29;20047;-72
2022/11/08 07:39:11;;;;;;;20.92;7.88;;;11.20;99.90;;;;;;4932241;29;20051;-72
2022/11/08 07:41:36;;;;;;;13.70;7.03;;;11.10;99.90;;;;;;4931133;29;20075;-72
2022/11/08 07:44:03;;;;;;;25.00;7.07;;;11.10;99.90;;;;;;4944495;28;20520;-72
2022/11/08 07:46:28;;;;;;;17.42;6.75;;;11.20;99.90;;;;;;4934820;29;20052;-72
2022/11/08 07:48:54;;;;;;;12.63;6.32;;;11.10;99.90;;;;;;4930126;29;20055;-72
2022/11/08 07:51:19;;;;;;;10.43;6.38;;;11.10;99.90;;;;;;4928124;29;20425;-72
2022/11/08 07:53:45;;;;;;;13.05;6.70;;;11.20;99.90;;;;;;4931550;29;20512;-72
2022/11/08 07:56:11;;;;;;;16.13;7.22;;;11.10;99.90;;;;;;4944568;28;20060;-72
2022/11/08 07:58:37;;;;;;;10.85;6.63;;;11.20;99.90;;;;;;4929526;29;20148;-72
2022/11/08 08:01:03;;;;;;;24.70;6.93;;;11.20;99.90;;;;;;4928961;29;20044;-72
2022/11/08 08:03:29;;;;;;;11.05;6.88;;;11.20;99.90;;;;;;4931064;29;20050;-73
2022/11/08 08:05:55;;;;;;;12.00;5.95;;;11.20;99.90;;;;;;4929190;29;20131;-73
2022/11/08 08:08:21;;;;;;;16.73;8.38;;;11.30;99.90;;;;;;4928110;29;20922;-73
2022/11/08 08:10:47;;;;;;;13.70;7.10;;;11.20;99.90;;;;;;4930039;29;20060;-73
2022/11/08 08:13:13;;;;;;;12.88;6.45;;;11.30;99.90;;;;;;4929205;29;20056;-72
2022/11/08 08:15:39;;;;;;;11.73;5.95;;;11.50;99.90;;;;;;4929060;29;20079;-73
2022/11/08 08:18:06;;;;;;;10.63;6.15;;;11.40;99.90;;;;;;4928281;29;20075;-72
2022/11/08 08:20:33;;;;;;;14.27;6.35;;;11.40;99.90;;;;;;4927162;29;20051;-72
2022/11/08 08:22:59;;;;;;;10.13;5.97;;;11.50;99.90;;;;;;4930109;29;20105;-73
2022/11/08 08:25:27;;;;;;;14.50;6.60;;;11.60;99.90;;;;;;4933768;29;20654;-73
2022/11/08 08:27:55;;;;;;;16.48;5.97;;;11.60;99.90;;;;;;4928742;29;20074;-73
2022/11/08 08:30:21;;;;;;;7.07;5.68;;;11.60;99.90;;;;;;4942895;28;20051;-72
2022/11/08 08:32:48;;;;;;;11.00;6.35;;;11.70;99.90;;;;;;4928279;29;20127;-72
2022/11/08 08:35:14;;;;;;;10.13;6.82;;;11.70;99.90;;;;;;4929156;29;20137;-72
2022/11/08 08:37:40;;;;;;;11.07;6.35;;;11.80;99.90;;;;;;4929015;29;20489;-72
2022/11/08 08:40:06;;;;;;;9.85;5.60;;;11.90;99.90;;;;;;4928927;29;20052;-72
2022/11/08 08:42:33;;;;;;;13.63;5.85;;;11.90;99.90;;;;;;4928562;29;20804;-73
2022/11/08 08:44:59;;;;;;;10.15;6.25;;;12.00;99.90;;;;;;4930195;29;20055;-72
2022/11/08 08:47:25;;;;;;;14.70;5.88;;;12.00;99.90;;;;;;4928131;29;20048;-72
2022/11/08 08:49:50;;;;;;;10.95;5.57;;;12.00;99.90;;;;;;4928055;29;20413;-72
2022/11/08 08:52:16;;;;;;;9.80;5.60;;;12.10;99.90;;;;;;4929659;29;20056;-73
2022/11/08 08:54:42;;;;;;;10.40;5.38;;;12.00;99.90;;;;;;4937052;29;20031;-73
2022/11/08 08:57:07;;;;;;;10.45;5.40;;;12.10;99.90;;;;;;4928690;29;20048;-73
2022/11/08 08:59:33;;;;;;;11.52;5.53;;;12.20;99.90;;;;;;4928556;29;20051;-73
2022/11/08 09:02:00;;;;;;;12.32;6.07;;;12.20;99.90;;;;;;4929094;29;20079;-72
2022/11/08 09:04:28;;;;;;;11.65;5.50;;;12.20;99.90;;;;;;4928365;29;20047;-72
2022/11/08 09:06:54;;;;;;;8.60;5.38;;;12.30;99.90;;;;;;4928659;29;20056;-72
2022/11/08 09:09:21;;;;;;;12.82;6.03;;;12.20;99.90;;;;;;4928191;29;20518;-72
2022/11/08 09:11:47;;;;;;;9.15;4.45;;;12.30;99.90;;;;;;4930506;29;20086;-72
2022/11/08 09:14:14;;;;;;;11.05;5.60;;;12.40;99.90;;;;;;4928208;29;20051;-72
2022/11/08 09:16:39;;;;;;;10.52;5.25;;;12.80;99.90;;;;;;4925930;29;20524;-72
2022/11/08 09:19:05;;;;;;;10.60;4.72;;;12.50;99.90;;;;;;4922698;29;20051;-73
2022/11/08 09:21:30;;;;;;;11.55;4.75;;;12.50;99.90;;;;;;4928268;29;20126;-73
2022/11/08 09:23:57;;;;;;;9.63;5.38;;;12.70;99.90;;;;;;4944013;28;20048;-72
2022/11/08 09:26:22;;;;;;;11.98;5.05;;;12.90;99.90;;;;;;4922969;29;20051;-72
2022/11/08 09:28:48;;;;;;;10.82;4.75;;;13.00;99.90;;;;;;4926785;29;20062;-73
2022/11/08 09:31:14;;;;;;;11.02;5.03;;;12.90;99.90;;;;;;4928302;29;20051;-73
2022/11/08 09:33:40;;;;;;;6.28;5.20;;;12.90;99.90;;;;;;4940445;28;20123;-73
2022/11/08 09:36:10;;;;;;;12.23;4.40;;;13.00;99.90;;;;;;4928307;29;20051;-72
2022/11/08 09:38:36;;;;;;;5.28;4.13;;;13.20;99.90;;;;;;4931658;29;20078;-72
2022/11/08 09:41:39;;;;;;;8.40;4.30;;;13.10;99.90;;;;;;4929050;29;20084;-73
2022/11/08 09:44:11;;;;;;;10.93;5.22;;;13.30;99.90;;;;;;4930171;29;20412;-72
2022/11/08 09:46:39;;;;;;;7.68;4.75;;;13.40;99.90;;;;;;4948899;28;20055;-73
2022/11/08 09:49:11;;;;;;;5.95;4.63;;;13.60;99.90;;;;;;4930402;29;20058;-73
2022/11/08 09:51:38;;;;;;;9.02;5.10;;;13.50;99.90;;;;;;4930279;29;20056;-73
2022/11/08 09:54:11;;;;;;;7.45;4.90;;;13.80;99.90;;;;;;4928926;29;20079;-73
2022/11/08 09:56:38;;;;;;;6.30;4.95;;;13.60;99.90;;;;;;4933441;29;20055;-73
2022/11/08 09:59:36;;;;;;;5.68;4.07;;;13.80;99.90;;;;;;4931316;29;20071;-73
2022/11/08 10:02:02;;;;;;;6.53;4.40;;;13.90;99.90;;;;;;4919213;29;20063;-73
2022/11/08 10:04:30;;;;;;;9.05;4.82;;;13.80;99.90;;;;;;4932782;29;20040;-72
2022/11/08 10:07:00;;;;;;;10.43;4.72;;;13.80;99.90;;;;;;4933031;29;20055;-73
2022/11/08 10:09:35;;;;;;;8.10;4.75;;;13.80;99.90;;;;;;4931053;29;20063;-73
2022/11/08 10:12:24;;;;;;;15.32;4.95;;;13.90;99.90;;;;;;4933146;29;20053;-73
2022/11/08 10:14:58;;;;;;;16.70;4.65;;;13.80;99.90;;;;;;4931848;29;20044;-73
2022/11/08 10:17:37;;;;;;;7.75;4.82;;;14.00;99.90;;;;;;4928872;29;20052;-74
2022/11/08 10:20:12;;;;;;;;;;;13.90;99.90;;;;;;4932939;29;20055;-73
2022/11/08 10:23:20;;;;;;;9.80;5.00;;;13.90;99.90;;;;;;4932020;29;19980;-73
2022/11/08 10:26:06;;;;;;;8.63;5.22;;;14.00;99.90;;;;;;4911229;29;20066;-73
2022/11/08 10:28:42;;;;;;;9.05;5.00;;;14.10;99.90;;;;;;4930817;29;20118;-73
2022/11/08 10:31:11;;;;;;;8.10;5.32;;;14.00;99.90;;;;;;4912493;29;20060;-73
2022/11/08 10:33:42;;;;;;;8.15;5.28;;;14.00;99.90;;;;;;4931301;29;20083;-73
2022/11/08 10:36:28;;;;;;;9.40;5.18;;;14.00;99.90;;;;;;4930391;29;20051;-73
2022/11/08 10:39:21;;;;;;;8.68;4.50;;;14.10;99.90;;;;;;4929896;29;20394;-73
2022/11/08 10:41:57;;;;;;;5.53;3.83;;;14.10;99.90;;;;;;4929475;29;20062;-73
2022/11/08 10:44:24;;;;;;;11.00;4.05;;;14.10;99.90;;;;;;4944323;29;20091;-73
2022/11/08 10:46:56;;;;;;;7.43;4.05;;;14.10;99.90;;;;;;4934374;29;20051;-73
2022/11/08 10:49:30;;;;;;;8.93;4.97;;;14.10;99.90;;;;;;4944185;28;20150;-73
2022/11/08 10:51:58;;;;;;;10.30;5.68;;;14.60;99.90;;;;;;4930848;29;20055;-73
2022/11/08 10:54:46;;;;;;;9.48;5.18;;;14.10;99.90;;;;;;4930726;29;20098;-73
2022/11/08 10:57:23;;;;;;;;;;;14.10;99.90;;;;;;4932782;29;20060;-73
2022/11/08 10:59:49;;;;;;;8.93;4.90;;;14.00;99.90;;;;;;4928032;29;19931;-73
2022/11/08 11:02:22;;;;;;;9.95;4.43;;;14.00;99.90;;;;;;4927608;29;20043;-73
2022/11/08 11:04:49;;;;;;;6.80;4.88;;;14.00;99.90;;;;;;4922486;29;20043;-73
2022/11/08 11:07:35;;;;;;;13.02;5.05;;;13.90;99.90;;;;;;4932349;29;20057;-73
2022/11/08 11:10:34;;;;;;;9.25;4.70;;;14.10;99.90;;;;;;4944994;29;20116;-73
2022/11/08 11:13:04;;;;;;;7.50;4.75;;;14.00;99.90;;;;;;4930397;29;20049;-73
2022/11/08 11:15:43;;;;;;;10.88;4.60;;;13.90;99.90;;;;;;4930614;29;20480;-73
2022/11/08 11:18:23;;;;;;;8.10;5.10;;;13.90;99.90;;;;;;4930441;29;20075;-73
2022/11/08 11:21:34;;;;;;;5.30;4.28;;;13.90;99.90;;;;;;4929295;29;20044;-73
2022/11/08 11:24:09;;;;;;;11.45;5.22;;;13.90;99.90;;;;;;4936809;29;20063;-73
2022/11/08 11:26:55;;;;;;;11.55;5.88;;;13.90;99.90;;;;;;4930613;29;21798;-73
2022/11/08 11:29:28;;;;;;;16.25;5.97;;;13.90;99.90;;;;;;4926755;29;20043;-73
2022/11/08 11:31:54;;;;;;;13.43;7.30;;;13.90;99.90;;;;;;4928516;29;20395;-73
2022/11/08 11:34:42;;;;;;;16.15;7.97;;;13.90;99.90;;;;;;4931327;29;20099;-73
2022/11/08 11:37:09;;;;;;;16.83;8.52;;;14.00;99.90;;;;;;4945852;28;20526;-74
2022/11/08 11:39:59;;;;;;;18.55;7.70;;;14.00;99.90;;;;;;4926631;29;20055;-74
2022/11/08 11:42:42;;;;;;;19.20;8.60;;;14.10;99.90;;;;;;4928849;29;20520;-74
2022/11/08 11:45:27;;;;;;;17.13;7.18;;;14.20;99.90;;;;;;4933808;29;20063;-74
2022/11/08 11:47:56;;;;;;;15.50;7.07;;;14.20;99.90;;;;;;4931213;29;20048;-74
2022/11/08 11:50:21;;;;;;;15.45;7.22;;;14.30;99.90;;;;;;4928950;29;20099;-73
2022/11/08 11:52:47;;;;;;;16.13;7.68;;;14.20;99.90;;;;;;4928168;29;20048;-74
2022/11/08 11:55:14;;;;;;;20.70;8.38;;;14.30;99.90;;;;;;4930779;29;20119;-74
2022/11/08 11:57:53;;;;;;;14.80;6.90;;;14.30;99.90;;;;;;4930775;29;20063;-73
2022/11/08 12:00:18;;;;;;;;;;;14.30;99.90;;;;;;4929846;29;20047;-74
2022/11/08 12:03:05;;;;;;;15.98;6.22;;;14.40;99.90;;;;;;4930295;29;19930;-74
2022/11/08 12:06:01;;;;;;;11.63;5.30;;;14.40;99.90;;;;;;4928991;29;20047;-74
2022/11/08 12:08:32;;;;;;;7.90;5.40;;;14.40;99.90;;;;;;4930227;29;20888;-74
2022/11/08 12:11:21;;;;;;;9.60;5.05;;;14.50;99.90;;;;;;4928628;29;20055;-74
2022/11/08 12:13:46;;;;;;;7.68;3.80;;;14.50;99.90;;;;;;4930463;29;20983;-74
2022/11/08 12:16:23;;;;;;;6.22;4.75;;;14.50;99.90;;;;;;4929280;29;20138;-74
2022/11/08 12:19:22;;;;;;;10.05;4.40;;;14.40;99.90;;;;;;4929857;29;20082;-74
2022/11/08 12:21:59;;;;;;;7.50;4.90;;;14.70;99.90;;;;;;4920111;29;20112;-74
2022/11/08 12:24:40;;;;;;;5.97;4.45;;;14.50;99.90;;;;;;4929515;29;20048;-75
2022/11/08 12:27:31;;;;;;;5.50;4.43;;;14.60;99.90;;;;;;4929105;29;20058;-75
2022/11/08 12:30:09;;;;;;;10.75;5.25;;;14.60;99.90;;;;;;4926666;29;20438;-75
2022/11/08 12:32:37;;;;;;;11.20;5.10;;;14.60;99.90;;;;;;4929152;29;20060;-75
2022/11/08 12:35:24;;;;;;;7.10;4.55;;;14.60;99.90;;;;;;4945593;29;20053;-75
2022/11/08 12:38:15;;;;;;;8.23;4.28;;;14.70;99.90;;;;;;4918694;29;20504;-75
2022/11/08 12:40:43;;;;;;;9.82;4.40;;;14.60;99.90;;;;;;4926074;29;20048;-76
2022/11/08 12:43:27;;;;;;;16.45;5.30;;;14.60;99.90;;;;;;4927743;29;20071;-76
2022/11/08 12:46:02;;;;;;;9.18;4.28;;;14.60;99.90;;;;;;4933736;29;20160;-76
2022/11/08 12:49:07;;;;;;;10.90;5.22;;;14.60;99.90;;;;;;4929052;29;20055;-76
2022/11/08 12:51:35;;;;;;;7.80;4.95;;;14.60;99.90;;;;;;4913644;29;20056;-76
2022/11/08 12:54:16;;;;;;;9.73;4.70;;;14.50;99.90;;;;;;4941357;29;20048;-76
2022/11/08 12:56:47;;;;;;;8.80;4.43;;;14.60;99.90;;;;;;4929202;29;20126;-76
2022/11/08 12:59:27;;;;;;;5.82;4.68;;;14.60;99.90;;;;;;4945616;28;20060;-76
2022/11/08 13:01:54;;;;;;;10.77;5.15;;;14.40;99.90;;;;;;4944964;29;20068;-76
2022/11/08 13:04:31;;;;;;;11.27;4.90;;;14.50;99.90;;;;;;4928097;29;20035;-76
2022/11/08 13:07:18;;;;;;;7.57;4.60;;;14.50;99.90;;;;;;4943563;28;20099;-76
2022/11/08 13:10:00;;;;;;;7.05;4.55;;;14.50;99.90;;;;;;4945282;29;20051;-76
2022/11/08 13:12:44;;;;;;;11.40;5.40;;;14.50;99.90;;;;;;4946234;28;20288;-77